sensor_id;sensor_type;location;lat;lon;timestamp;P1;durP1;ratioP1;P2;durP2;ratioP2
25155;SDS011;71253;51.496;7.606;2023-12-29T00:02:06;13.38;;;1.80;;
25155;SDS011;71253;51.496;7.606;2023-12-29T00:07:07;10.27;;;1.83;;
25155;SDS011;71253;51.496;7.606;2023-12-29T00:12:09;9.18;;;1.73;;
25155;SDS011;71253;51.496;7.606;2023-12-29T00:17:11;9.07;;;1.88;;
25155;SDS011;71253;51.496;7.606;2023-12-29T00:22:12;17.25;;;1.90;;
25155;SDS011;71253;51.496;7.606;2023-12-29T00:27:14;11.05;;;1.50;;
25155;SDS011;71253;51.496;7.606;2023-12-29T00:32:15;6.25;;;1.42;;
25155;SDS011;71253;51.496;7.606;2023-12-29T00:37:17;15.02;;;1.80;;
25155;SDS011;71253;51.496;7.606;2023-12-29T00:42:18;12.10;;;1.95;;
25155;SDS011;71253;51.496;7.606;2023-12-29T00:47:20;12.77;;;2.05;;
25155;SDS011;71253;51.496;7.606;2023-12-29T00:52:21;16.30;;;2.03;;
25155;SDS011;71253;51.496;7.606;2023-12-29T00:57:23;13.90;;;1.70;;
25155;SDS011;71253;51.496;7.606;2023-12-29T01:02:25;12.27;;;1.77;;
25155;SDS011;71253;51.496;7.606;2023-12-29T01:07:26;9.80;;;1.63;;
25155;SDS011;71253;51.496;7.606;2023-12-29T01:12:28;12.45;;;1.98;;
25155;SDS011;71253;51.496;7.606;2023-12-29T01:17:29;12.68;;;1.52;;
25155;SDS011;71253;51.496;7.606;2023-12-29T01:22:31;7.90;;;1.40;;
25155;SDS011;71253;51.496;7.606;2023-12-29T01:27:33;13.07;;;2.05;;
25155;SDS011;71253;51.496;7.606;2023-12-29T01:32:35;12.93;;;1.67;;
25155;SDS011;71253;51.496;7.606;2023-12-29T01:37:37;11.60;;;1.63;;
25155;SDS011;71253;51.496;7.606;2023-12-29T01:42:38;14.02;;;1.95;;
25155;SDS011;71253;51.496;7.606;2023-12-29T01:47:41;8.13;;;1.60;;
25155;SDS011;71253;51.496;7.606;2023-12-29T01:52:42;9.88;;;1.42;;
25155;SDS011;71253;51.496;7.606;2023-12-29T01:57:45;11.93;;;1.88;;
25155;SDS011;71253;51.496;7.606;2023-12-29T02:02:48;13.20;;;1.70;;
25155;SDS011;71253;51.496;7.606;2023-12-29T02:07:51;12.60;;;1.70;;
25155;SDS011;71253;51.496;7.606;2023-12-29T02:12:53;12.35;;;1.70;;
25155;SDS011;71253;51.496;7.606;2023-12-29T02:17:57;20.75;;;2.33;;
25155;SDS011;71253;51.496;7.606;2023-12-29T02:23:02;15.77;;;2.38;;
25155;SDS011;71253;51.496;7.606;2023-12-29T02:28:26;16.85;;;2.10;;
25155;SDS011;71253;51.496;7.606;2023-12-29T02:33:27;11.10;;;1.70;;
25155;SDS011;71253;51.496;7.606;2023-12-29T02:38:30;18.63;;;2.45;;
25155;SDS011;71253;51.496;7.606;2023-12-29T02:43:34;19.15;;;2.72;;
25155;SDS011;71253;51.496;7.606;2023-12-29T02:48:35;15.85;;;2.53;;
25155;SDS011;71253;51.496;7.606;2023-12-29T02:53:37;15.65;;;2.50;;
25155;SDS011;71253;51.496;7.606;2023-12-29T02:58:38;17.58;;;2.40;;
25155;SDS011;71253;51.496;7.606;2023-12-29T03:03:40;21.05;;;2.83;;
25155;SDS011;71253;51.496;7.606;2023-12-29T03:08:41;20.15;;;2.83;;
25155;SDS011;71253;51.496;7.606;2023-12-29T03:13:43;12.93;;;2.25;;
25155;SDS011;71253;51.496;7.606;2023-12-29T03:18:44;20.92;;;2.60;;
25155;SDS011;71253;51.496;7.606;2023-12-29T03:23:47;12.43;;;2.60;;
25155;SDS011;71253;51.496;7.606;2023-12-29T03:28:49;13.20;;;2.50;;
25155;SDS011;71253;51.496;7.606;2023-12-29T03:33:52;16.30;;;2.95;;
25155;SDS011;71253;51.496;7.606;2023-12-29T03:38:54;17.40;;;3.15;;
25155;SDS011;71253;51.496;7.606;2023-12-29T03:43:55;21.73;;;2.83;;
25155;SDS011;71253;51.496;7.606;2023-12-29T03:48:57;11.80;;;2.40;;
25155;SDS011;71253;51.496;7.606;2023-12-29T03:53:59;26.35;;;3.45;;
25155;SDS011;71253;51.496;7.606;2023-12-29T03:59:00;21.92;;;2.50;;
25155;SDS011;71253;51.496;7.606;2023-12-29T04:04:02;17.38;;;2.63;;
25155;SDS011;71253;51.496;7.606;2023-12-29T04:09:03;20.65;;;2.55;;
25155;SDS011;71253;51.496;7.606;2023-12-29T04:14:06;14.90;;;2.35;;
25155;SDS011;71253;51.496;7.606;2023-12-29T04:19:07;22.63;;;2.42;;
25155;SDS011;71253;51.496;7.606;2023-12-29T04:24:09;13.57;;;2.40;;
25155;SDS011;71253;51.496;7.606;2023-12-29T04:29:10;14.60;;;2.38;;
25155;SDS011;71253;51.496;7.606;2023-12-29T04:34:12;16.65;;;2.20;;
25155;SDS011;71253;51.496;7.606;2023-12-29T04:39:13;16.88;;;2.38;;
25155;SDS011;71253;51.496;7.606;2023-12-29T04:44:15;15.43;;;2.67;;
25155;SDS011;71253;51.496;7.606;2023-12-29T04:49:16;15.07;;;2.50;;
25155;SDS011;71253;51.496;7.606;2023-12-29T04:54:18;13.23;;;2.05;;
25155;SDS011;71253;51.496;7.606;2023-12-29T04:59:20;16.55;;;2.30;;
25155;SDS011;71253;51.496;7.606;2023-12-29T05:04:21;13.85;;;2.40;;
25155;SDS011;71253;51.496;7.606;2023-12-29T05:09:23;17.33;;;1.98;;
25155;SDS011;71253;51.496;7.606;2023-12-29T05:14:24;13.27;;;2.40;;
25155;SDS011;71253;51.496;7.606;2023-12-29T05:19:26;13.88;;;2.40;;
25155;SDS011;71253;51.496;7.606;2023-12-29T05:24:27;13.80;;;2.20;;
25155;SDS011;71253;51.496;7.606;2023-12-29T05:29:29;12.75;;;2.55;;
25155;SDS011;71253;51.496;7.606;2023-12-29T05:34:30;13.95;;;2.40;;
25155;SDS011;71253;51.496;7.606;2023-12-29T05:39:32;18.05;;;2.42;;
25155;SDS011;71253;51.496;7.606;2023-12-29T05:44:35;11.63;;;2.30;;
25155;SDS011;71253;51.496;7.606;2023-12-29T05:49:37;11.50;;;2.08;;
25155;SDS011;71253;51.496;7.606;2023-12-29T05:54:39;18.27;;;2.33;;
25155;SDS011;71253;51.496;7.606;2023-12-29T05:59:41;15.20;;;2.10;;
25155;SDS011;71253;51.496;7.606;2023-12-29T06:04:42;16.98;;;2.45;;
25155;SDS011;71253;51.496;7.606;2023-12-29T06:09:44;14.75;;;1.95;;
25155;SDS011;71253;51.496;7.606;2023-12-29T06:14:45;16.67;;;2.00;;
25155;SDS011;71253;51.496;7.606;2023-12-29T06:19:47;17.20;;;2.53;;
25155;SDS011;71253;51.496;7.606;2023-12-29T06:24:48;21.98;;;2.50;;
25155;SDS011;71253;51.496;7.606;2023-12-29T06:29:50;14.60;;;2.00;;
25155;SDS011;71253;51.496;7.606;2023-12-29T06:34:51;16.27;;;2.17;;
25155;SDS011;71253;51.496;7.606;2023-12-29T06:39:53;16.95;;;2.50;;
25155;SDS011;71253;51.496;7.606;2023-12-29T06:44:55;19.08;;;2.70;;
25155;SDS011;71253;51.496;7.606;2023-12-29T06:49:56;15.50;;;2.78;;
25155;SDS011;71253;51.496;7.606;2023-12-29T06:54:58;18.20;;;2.40;;
25155;SDS011;71253;51.496;7.606;2023-12-29T06:59:59;14.07;;;2.22;;
25155;SDS011;71253;51.496;7.606;2023-12-29T07:05:01;15.77;;;2.05;;
25155;SDS011;71253;51.496;7.606;2023-12-29T07:10:03;13.27;;;2.40;;
25155;SDS011;71253;51.496;7.606;2023-12-29T07:15:05;13.85;;;2.13;;
25155;SDS011;71253;51.496;7.606;2023-12-29T07:20:07;12.18;;;1.92;;
25155;SDS011;71253;51.496;7.606;2023-12-29T07:25:09;15.10;;;2.30;;
25155;SDS011;71253;51.496;7.606;2023-12-29T07:30:11;19.90;;;2.20;;
25155;SDS011;71253;51.496;7.606;2023-12-29T07:35:13;19.45;;;2.50;;
25155;SDS011;71253;51.496;7.606;2023-12-29T07:40:15;13.73;;;2.53;;
25155;SDS011;71253;51.496;7.606;2023-12-29T07:45:17;19.65;;;2.35;;
25155;SDS011;71253;51.496;7.606;2023-12-29T07:50:18;24.63;;;2.55;;
25155;SDS011;71253;51.496;7.606;2023-12-29T07:55:20;13.30;;;2.05;;
25155;SDS011;71253;51.496;7.606;2023-12-29T08:00:21;16.73;;;2.60;;
25155;SDS011;71253;51.496;7.606;2023-12-29T08:05:23;21.05;;;2.60;;
25155;SDS011;71253;51.496;7.606;2023-12-29T08:10:25;15.05;;;2.15;;
25155;SDS011;71253;51.496;7.606;2023-12-29T08:15:26;18.88;;;2.80;;
25155;SDS011;71253;51.496;7.606;2023-12-29T08:20:28;14.95;;;2.95;;
25155;SDS011;71253;51.496;7.606;2023-12-29T08:25:30;19.45;;;2.92;;
25155;SDS011;71253;51.496;7.606;2023-12-29T08:30:34;17.83;;;2.72;;
25155;SDS011;71253;51.496;7.606;2023-12-29T08:35:36;18.27;;;2.72;;
25155;SDS011;71253;51.496;7.606;2023-12-29T08:40:37;12.70;;;2.50;;
25155;SDS011;71253;51.496;7.606;2023-12-29T08:45:39;12.25;;;2.13;;
25155;SDS011;71253;51.496;7.606;2023-12-29T08:50:40;15.50;;;2.45;;
25155;SDS011;71253;51.496;7.606;2023-12-29T08:55:42;14.05;;;2.28;;
25155;SDS011;71253;51.496;7.606;2023-12-29T09:00:44;13.63;;;2.15;;
25155;SDS011;71253;51.496;7.606;2023-12-29T09:05:45;10.68;;;2.08;;
25155;SDS011;71253;51.496;7.606;2023-12-29T09:10:47;10.73;;;2.10;;
25155;SDS011;71253;51.496;7.606;2023-12-29T09:15:48;15.88;;;1.73;;
25155;SDS011;71253;51.496;7.606;2023-12-29T09:20:50;11.23;;;1.70;;
25155;SDS011;71253;51.496;7.606;2023-12-29T09:25:52;10.38;;;1.85;;
25155;SDS011;71253;51.496;7.606;2023-12-29T09:30:53;6.50;;;1.50;;
25155;SDS011;71253;51.496;7.606;2023-12-29T09:35:55;8.27;;;1.50;;
25155;SDS011;71253;51.496;7.606;2023-12-29T09:40:59;6.13;;;1.60;;
25155;SDS011;71253;51.496;7.606;2023-12-29T09:46:05;9.02;;;1.40;;
25155;SDS011;71253;51.496;7.606;2023-12-29T09:51:09;7.00;;;1.20;;
25155;SDS011;71253;51.496;7.606;2023-12-29T09:56:11;4.68;;;1.10;;
25155;SDS011;71253;51.496;7.606;2023-12-29T10:01:14;3.67;;;1.00;;
25155;SDS011;71253;51.496;7.606;2023-12-29T10:06:23;4.90;;;0.88;;
25155;SDS011;71253;51.496;7.606;2023-12-29T10:11:25;2.13;;;0.73;;
25155;SDS011;71253;51.496;7.606;2023-12-29T10:21:35;4.30;;;0.55;;
25155;SDS011;71253;51.496;7.606;2023-12-29T10:26:42;2.50;;;0.50;;
25155;SDS011;71253;51.496;7.606;2023-12-29T10:31:45;5.20;;;0.93;;
25155;SDS011;71253;51.496;7.606;2023-12-29T10:36:50;5.00;;;0.75;;
25155;SDS011;71253;51.496;7.606;2023-12-29T10:42:04;2.75;;;0.50;;
25155;SDS011;71253;51.496;7.606;2023-12-29T10:47:10;0.73;;;0.30;;
25155;SDS011;71253;51.496;7.606;2023-12-29T10:52:13;4.38;;;0.70;;
25155;SDS011;71253;51.496;7.606;2023-12-29T10:57:16;2.92;;;0.55;;
25155;SDS011;71253;51.496;7.606;2023-12-29T11:02:17;1.52;;;0.60;;
25155;SDS011;71253;51.496;7.606;2023-12-29T11:12:55;2.90;;;1.20;;
25155;SDS011;71253;51.496;7.606;2023-12-29T11:17:57;5.85;;;1.20;;
25155;SDS011;71253;51.496;7.606;2023-12-29T11:22:59;3.63;;;1.30;;
25155;SDS011;71253;51.496;7.606;2023-12-29T11:28:01;3.35;;;1.00;;
25155;SDS011;71253;51.496;7.606;2023-12-29T11:33:03;1.50;;;0.70;;
25155;SDS011;71253;51.496;7.606;2023-12-29T11:44:06;7.55;;;3.70;;
25155;SDS011;71253;51.496;7.606;2023-12-29T11:49:08;3.15;;;1.25;;
25155;SDS011;71253;51.496;7.606;2023-12-29T11:54:10;6.07;;;1.92;;
25155;SDS011;71253;51.496;7.606;2023-12-29T11:59:23;7.38;;;1.50;;
25155;SDS011;71253;51.496;7.606;2023-12-29T12:04:42;7.90;;;1.48;;
25155;SDS011;71253;51.496;7.606;2023-12-29T12:09:44;5.47;;;1.13;;
25155;SDS011;71253;51.496;7.606;2023-12-29T12:19:52;7.15;;;1.10;;
25155;SDS011;71253;51.496;7.606;2023-12-29T12:24:58;6.20;;;1.00;;
25155;SDS011;71253;51.496;7.606;2023-12-29T12:30:01;5.25;;;1.15;;
25155;SDS011;71253;51.496;7.606;2023-12-29T12:35:03;5.70;;;1.27;;
25155;SDS011;71253;51.496;7.606;2023-12-29T12:40:25;6.35;;;1.02;;
25155;SDS011;71253;51.496;7.606;2023-12-29T12:45:27;10.50;;;1.00;;
25155;SDS011;71253;51.496;7.606;2023-12-29T12:50:29;5.50;;;1.02;;
25155;SDS011;71253;51.496;7.606;2023-12-29T12:55:32;6.75;;;1.50;;
25155;SDS011;71253;51.496;7.606;2023-12-29T13:00:36;7.72;;;1.25;;
25155;SDS011;71253;51.496;7.606;2023-12-29T13:05:37;6.03;;;1.35;;
25155;SDS011;71253;51.496;7.606;2023-12-29T13:10:40;8.25;;;1.33;;
25155;SDS011;71253;51.496;7.606;2023-12-29T13:15:46;6.80;;;1.80;;
25155;SDS011;71253;51.496;7.606;2023-12-29T13:20:48;6.68;;;1.30;;
25155;SDS011;71253;51.496;7.606;2023-12-29T13:25:50;5.55;;;1.15;;
25155;SDS011;71253;51.496;7.606;2023-12-29T13:31:09;5.55;;;1.35;;
25155;SDS011;71253;51.496;7.606;2023-12-29T13:41:37;7.72;;;1.67;;
25155;SDS011;71253;51.496;7.606;2023-12-29T13:46:40;6.85;;;1.75;;
25155;SDS011;71253;51.496;7.606;2023-12-29T13:51:42;8.32;;;1.70;;
25155;SDS011;71253;51.496;7.606;2023-12-29T13:56:52;5.45;;;1.55;;
25155;SDS011;71253;51.496;7.606;2023-12-29T14:01:54;7.07;;;1.98;;
25155;SDS011;71253;51.496;7.606;2023-12-29T14:07:00;5.70;;;1.67;;
25155;SDS011;71253;51.496;7.606;2023-12-29T14:12:03;7.43;;;1.98;;
25155;SDS011;71253;51.496;7.606;2023-12-29T14:17:05;8.70;;;1.98;;
25155;SDS011;71253;51.496;7.606;2023-12-29T14:22:08;11.02;;;2.10;;
25155;SDS011;71253;51.496;7.606;2023-12-29T14:27:10;7.95;;;1.52;;
25155;SDS011;71253;51.496;7.606;2023-12-29T14:32:13;7.57;;;1.73;;
25155;SDS011;71253;51.496;7.606;2023-12-29T14:37:15;5.72;;;1.67;;
25155;SDS011;71253;51.496;7.606;2023-12-29T14:42:16;5.55;;;1.38;;
25155;SDS011;71253;51.496;7.606;2023-12-29T14:47:18;7.88;;;1.50;;
25155;SDS011;71253;51.496;7.606;2023-12-29T14:52:20;11.82;;;3.05;;
25155;SDS011;71253;51.496;7.606;2023-12-29T14:57:21;10.60;;;2.30;;
25155;SDS011;71253;51.496;7.606;2023-12-29T15:02:23;7.85;;;2.13;;
25155;SDS011;71253;51.496;7.606;2023-12-29T15:07:24;7.43;;;3.50;;
25155;SDS011;71253;51.496;7.606;2023-12-29T15:12:26;8.10;;;1.33;;
25155;SDS011;71253;51.496;7.606;2023-12-29T15:17:27;4.68;;;1.20;;
25155;SDS011;71253;51.496;7.606;2023-12-29T15:22:29;5.03;;;1.20;;
25155;SDS011;71253;51.496;7.606;2023-12-29T15:27:30;4.38;;;0.90;;
25155;SDS011;71253;51.496;7.606;2023-12-29T15:32:32;4.32;;;0.70;;
25155;SDS011;71253;51.496;7.606;2023-12-29T15:37:33;2.90;;;0.70;;
25155;SDS011;71253;51.496;7.606;2023-12-29T15:42:35;3.38;;;0.68;;
25155;SDS011;71253;51.496;7.606;2023-12-29T15:47:37;3.72;;;0.75;;
25155;SDS011;71253;51.496;7.606;2023-12-29T15:52:38;2.58;;;0.80;;
25155;SDS011;71253;51.496;7.606;2023-12-29T15:57:40;3.50;;;0.80;;
25155;SDS011;71253;51.496;7.606;2023-12-29T16:02:42;2.13;;;0.80;;
25155;SDS011;71253;51.496;7.606;2023-12-29T16:07:43;2.85;;;1.20;;
25155;SDS011;71253;51.496;7.606;2023-12-29T16:12:45;3.97;;;1.30;;
25155;SDS011;71253;51.496;7.606;2023-12-29T16:17:47;4.38;;;2.10;;
25155;SDS011;71253;51.496;7.606;2023-12-29T16:22:48;3.28;;;2.20;;
25155;SDS011;71253;51.496;7.606;2023-12-29T16:27:50;5.07;;;2.10;;
25155;SDS011;71253;51.496;7.606;2023-12-29T16:32:51;4.88;;;1.80;;
25155;SDS011;71253;51.496;7.606;2023-12-29T16:37:54;3.53;;;1.30;;
25155;SDS011;71253;51.496;7.606;2023-12-29T16:42:56;6.03;;;1.30;;
25155;SDS011;71253;51.496;7.606;2023-12-29T16:47:57;2.85;;;0.82;;
25155;SDS011;71253;51.496;7.606;2023-12-29T16:52:59;5.80;;;1.10;;
25155;SDS011;71253;51.496;7.606;2023-12-29T16:58:00;2.85;;;1.10;;
25155;SDS011;71253;51.496;7.606;2023-12-29T17:03:02;3.95;;;0.90;;
25155;SDS011;71253;51.496;7.606;2023-12-29T17:08:04;2.42;;;1.17;;
25155;SDS011;71253;51.496;7.606;2023-12-29T17:13:06;3.38;;;1.33;;
25155;SDS011;71253;51.496;7.606;2023-12-29T17:18:08;5.25;;;1.60;;
25155;SDS011;71253;51.496;7.606;2023-12-29T17:23:09;4.25;;;2.10;;
25155;SDS011;71253;51.496;7.606;2023-12-29T17:28:11;3.47;;;1.98;;
25155;SDS011;71253;51.496;7.606;2023-12-29T17:33:12;2.90;;;1.63;;
25155;SDS011;71253;51.496;7.606;2023-12-29T17:38:14;3.25;;;1.10;;
25155;SDS011;71253;51.496;7.606;2023-12-29T17:43:15;3.05;;;0.90;;
25155;SDS011;71253;51.496;7.606;2023-12-29T17:48:17;2.38;;;1.00;;
25155;SDS011;71253;51.496;7.606;2023-12-29T17:53:18;5.10;;;1.50;;
25155;SDS011;71253;51.496;7.606;2023-12-29T17:58:20;8.45;;;1.90;;
25155;SDS011;71253;51.496;7.606;2023-12-29T18:03:22;5.38;;;1.80;;
25155;SDS011;71253;51.496;7.606;2023-12-29T18:08:23;10.05;;;2.00;;
25155;SDS011;71253;51.496;7.606;2023-12-29T18:13:25;7.85;;;2.00;;
25155;SDS011;71253;51.496;7.606;2023-12-29T18:18:26;11.23;;;1.80;;
25155;SDS011;71253;51.496;7.606;2023-12-29T18:23:28;7.15;;;1.75;;
25155;SDS011;71253;51.496;7.606;2023-12-29T18:28:30;5.30;;;1.58;;
25155;SDS011;71253;51.496;7.606;2023-12-29T18:33:31;10.95;;;1.55;;
25155;SDS011;71253;51.496;7.606;2023-12-29T18:38:33;5.15;;;1.50;;
25155;SDS011;71253;51.496;7.606;2023-12-29T18:43:35;5.30;;;1.50;;
25155;SDS011;71253;51.496;7.606;2023-12-29T18:48:37;8.57;;;1.83;;
25155;SDS011;71253;51.496;7.606;2023-12-29T18:53:39;7.55;;;1.90;;
25155;SDS011;71253;51.496;7.606;2023-12-29T18:58:41;14.52;;;2.50;;
25155;SDS011;71253;51.496;7.606;2023-12-29T19:03:42;12.45;;;2.05;;
25155;SDS011;71253;51.496;7.606;2023-12-29T19:08:44;12.32;;;1.95;;
25155;SDS011;71253;51.496;7.606;2023-12-29T19:13:46;13.57;;;2.17;;
25155;SDS011;71253;51.496;7.606;2023-12-29T19:18:48;12.00;;;2.33;;
25155;SDS011;71253;51.496;7.606;2023-12-29T19:23:49;10.90;;;1.75;;
25155;SDS011;71253;51.496;7.606;2023-12-29T19:28:51;8.95;;;1.85;;
25155;SDS011;71253;51.496;7.606;2023-12-29T19:33:53;12.77;;;1.88;;
25155;SDS011;71253;51.496;7.606;2023-12-29T19:38:55;8.52;;;1.75;;
25155;SDS011;71253;51.496;7.606;2023-12-29T19:43:57;11.88;;;1.73;;
25155;SDS011;71253;51.496;7.606;2023-12-29T19:48:58;12.88;;;1.80;;
25155;SDS011;71253;51.496;7.606;2023-12-29T19:54:00;12.50;;;2.17;;
25155;SDS011;71253;51.496;7.606;2023-12-29T19:59:04;14.30;;;2.30;;
25155;SDS011;71253;51.496;7.606;2023-12-29T20:04:06;17.85;;;2.35;;
25155;SDS011;71253;51.496;7.606;2023-12-29T20:09:07;9.77;;;2.10;;
25155;SDS011;71253;51.496;7.606;2023-12-29T20:14:09;13.32;;;2.05;;
25155;SDS011;71253;51.496;7.606;2023-12-29T20:19:11;13.40;;;2.50;;
25155;SDS011;71253;51.496;7.606;2023-12-29T20:24:13;10.55;;;1.55;;
25155;SDS011;71253;51.496;7.606;2023-12-29T20:29:14;6.43;;;1.45;;
25155;SDS011;71253;51.496;7.606;2023-12-29T20:34:16;6.60;;;1.42;;
25155;SDS011;71253;51.496;7.606;2023-12-29T20:39:17;13.30;;;1.80;;
25155;SDS011;71253;51.496;7.606;2023-12-29T20:44:19;8.55;;;1.73;;
25155;SDS011;71253;51.496;7.606;2023-12-29T20:49:20;5.13;;;1.30;;
25155;SDS011;71253;51.496;7.606;2023-12-29T20:54:22;9.05;;;2.05;;
25155;SDS011;71253;51.496;7.606;2023-12-29T20:59:24;12.07;;;2.03;;
25155;SDS011;71253;51.496;7.606;2023-12-29T21:04:25;8.27;;;1.90;;
25155;SDS011;71253;51.496;7.606;2023-12-29T21:09:27;12.70;;;1.88;;
25155;SDS011;71253;51.496;7.606;2023-12-29T21:14:31;12.13;;;2.03;;
25155;SDS011;71253;51.496;7.606;2023-12-29T21:19:33;13.45;;;2.78;;
25155;SDS011;71253;51.496;7.606;2023-12-29T21:24:34;13.65;;;2.50;;
25155;SDS011;71253;51.496;7.606;2023-12-29T21:29:36;17.55;;;2.53;;
25155;SDS011;71253;51.496;7.606;2023-12-29T21:34:38;9.55;;;2.83;;
25155;SDS011;71253;51.496;7.606;2023-12-29T21:39:40;18.60;;;3.00;;
25155;SDS011;71253;51.496;7.606;2023-12-29T21:44:43;18.77;;;3.03;;
25155;SDS011;71253;51.496;7.606;2023-12-29T21:49:45;23.55;;;2.90;;
25155;SDS011;71253;51.496;7.606;2023-12-29T21:54:46;19.13;;;2.78;;
25155;SDS011;71253;51.496;7.606;2023-12-29T21:59:48;20.52;;;2.92;;
25155;SDS011;71253;51.496;7.606;2023-12-29T22:04:49;19.02;;;2.60;;
25155;SDS011;71253;51.496;7.606;2023-12-29T22:09:51;16.08;;;2.75;;
25155;SDS011;71253;51.496;7.606;2023-12-29T22:14:52;17.45;;;2.72;;
25155;SDS011;71253;51.496;7.606;2023-12-29T22:19:54;15.70;;;2.75;;
25155;SDS011;71253;51.496;7.606;2023-12-29T22:24:56;20.48;;;2.70;;
25155;SDS011;71253;51.496;7.606;2023-12-29T22:29:57;15.48;;;2.60;;
25155;SDS011;71253;51.496;7.606;2023-12-29T22:34:59;22.38;;;3.20;;
25155;SDS011;71253;51.496;7.606;2023-12-29T22:40:00;20.10;;;3.08;;
25155;SDS011;71253;51.496;7.606;2023-12-29T22:45:02;18.92;;;2.50;;
25155;SDS011;71253;51.496;7.606;2023-12-29T22:50:04;20.90;;;3.03;;
25155;SDS011;71253;51.496;7.606;2023-12-29T22:55:06;25.02;;;3.05;;
25155;SDS011;71253;51.496;7.606;2023-12-29T23:00:08;16.23;;;2.70;;
25155;SDS011;71253;51.496;7.606;2023-12-29T23:05:10;23.00;;;3.10;;
25155;SDS011;71253;51.496;7.606;2023-12-29T23:10:11;22.25;;;2.90;;
25155;SDS011;71253;51.496;7.606;2023-12-29T23:15:13;17.50;;;2.47;;
25155;SDS011;71253;51.496;7.606;2023-12-29T23:20:15;20.20;;;2.75;;
25155;SDS011;71253;51.496;7.606;2023-12-29T23:25:16;22.50;;;2.67;;
25155;SDS011;71253;51.496;7.606;2023-12-29T23:30:18;17.70;;;2.75;;
25155;SDS011;71253;51.496;7.606;2023-12-29T23:35:19;24.73;;;2.72;;
25155;SDS011;71253;51.496;7.606;2023-12-29T23:40:23;22.27;;;3.13;;
25155;SDS011;71253;51.496;7.606;2023-12-29T23:45:25;20.52;;;2.75;;
25155;SDS011;71253;51.496;7.606;2023-12-29T23:50:26;18.48;;;2.90;;
25155;SDS011;71253;51.496;7.606;2023-12-29T23:55:28;19.45;;;2.70;;
